sensor_id;sensor_type;location;lat;lon;timestamp;pressure;altitude;pressure_sealevel;temperature;humidity
48364;BME280;34170;54.364;18.582;2023-12-20T00:02:28;99117.56;;;8.80;100.00
48364;BME280;34170;54.364;18.582;2023-12-20T00:04:55;99113.94;;;8.54;100.00
48364;BME280;34170;54.364;18.582;2023-12-20T00:07:23;99103.59;;;8.59;100.00
48364;BME280;34170;54.364;18.582;2023-12-20T00:09:50;99087.44;;;8.43;100.00
48364;BME280;34170;54.364;18.582;2023-12-20T00:12:18;99114.22;;;8.43;100.00
48364;BME280;34170;54.364;18.582;2023-12-20T00:14:45;99116.47;;;8.30;100.00
48364;BME280;34170;54.364;18.582;2023-12-20T00:17:13;99096.25;;;8.35;100.00
48364;BME280;34170;54.364;18.582;2023-12-20T00:19:41;99111.00;;;8.39;100.00
48364;BME280;34170;54.364;18.582;2023-12-20T00:22:09;99127.03;;;8.57;100.00
48364;BME280;34170;54.364;18.582;2023-12-20T00:24:36;99126.94;;;8.41;100.00
48364;BME280;34170;54.364;18.582;2023-12-20T00:27:05;99134.09;;;8.58;100.00
48364;BME280;34170;54.364;18.582;2023-12-20T00:29:36;99133.13;;;8.15;100.00
48364;BME280;34170;54.364;18.582;2023-12-20T00:32:04;99120.53;;;8.34;100.00
48364;BME280;34170;54.364;18.582;2023-12-20T00:34:32;99132.66;;;8.20;100.00
48364;BME280;34170;54.364;18.582;2023-12-20T00:36:59;99134.97;;;8.41;100.00
48364;BME280;34170;54.364;18.582;2023-12-20T00:39:27;99124.63;;;8.20;100.00
48364;BME280;34170;54.364;18.582;2023-12-20T00:41:54;99134.34;;;7.95;100.00
48364;BME280;34170;54.364;18.582;2023-12-20T00:44:22;99121.69;;;8.05;100.00
48364;BME280;34170;54.364;18.582;2023-12-20T00:46:50;99113.66;;;8.05;100.00
48364;BME280;34170;54.364;18.582;2023-12-20T00:49:17;99137.53;;;7.98;100.00
48364;BME280;34170;54.364;18.582;2023-12-20T00:51:45;99130.63;;;8.14;100.00
48364;BME280;34170;54.364;18.582;2023-12-20T00:54:14;99135.97;;;8.14;100.00
48364;BME280;34170;54.364;18.582;2023-12-20T00:56:41;99142.91;;;8.25;100.00
48364;BME280;34170;54.364;18.582;2023-12-20T00:59:09;99137.06;;;8.29;100.00
48364;BME280;34170;54.364;18.582;2023-12-20T01:01:37;99129.84;;;8.30;100.00
48364;BME280;34170;54.364;18.582;2023-12-20T01:04:05;99115.09;;;8.17;100.00
48364;BME280;34170;54.364;18.582;2023-12-20T01:06:33;99113.72;;;7.87;100.00
48364;BME280;34170;54.364;18.582;2023-12-20T01:09:01;99122.66;;;7.78;100.00
48364;BME280;34170;54.364;18.582;2023-12-20T01:11:28;99128.66;;;7.54;100.00
48364;BME280;34170;54.364;18.582;2023-12-20T01:13:56;99131.59;;;7.42;100.00
48364;BME280;34170;54.364;18.582;2023-12-20T01:16:23;99143.13;;;7.25;100.00
48364;BME280;34170;54.364;18.582;2023-12-20T01:18:51;99138.16;;;7.30;100.00
48364;BME280;34170;54.364;18.582;2023-12-20T01:21:19;99142.28;;;7.42;100.00
48364;BME280;34170;54.364;18.582;2023-12-20T01:23:46;99142.06;;;7.36;100.00
48364;BME280;34170;54.364;18.582;2023-12-20T01:26:14;99152.22;;;7.32;100.00
48364;BME280;34170;54.364;18.582;2023-12-20T01:28:42;99139.88;;;7.03;100.00
48364;BME280;34170;54.364;18.582;2023-12-20T01:31:10;99136.53;;;7.19;100.00
48364;BME280;34170;54.364;18.582;2023-12-20T01:33:37;99131.41;;;7.26;100.00
48364;BME280;34170;54.364;18.582;2023-12-20T01:36:05;99118.66;;;7.38;100.00
48364;BME280;34170;54.364;18.582;2023-12-20T01:38:33;99136.69;;;7.18;100.00
48364;BME280;34170;54.364;18.582;2023-12-20T01:41:00;99136.41;;;7.21;100.00
48364;BME280;34170;54.364;18.582;2023-12-20T01:43:29;99113.59;;;7.17;100.00
48364;BME280;34170;54.364;18.582;2023-12-20T01:46:04;99114.81;;;7.22;100.00
48364;BME280;34170;54.364;18.582;2023-12-20T01:48:32;99117.19;;;7.07;100.00
48364;BME280;34170;54.364;18.582;2023-12-20T01:51:00;99122.94;;;7.13;100.00
48364;BME280;34170;54.364;18.582;2023-12-20T01:53:29;99113.06;;;6.95;100.00
48364;BME280;34170;54.364;18.582;2023-12-20T01:55:57;99114.50;;;6.90;100.00
48364;BME280;34170;54.364;18.582;2023-12-20T01:58:26;99113.41;;;6.82;100.00
48364;BME280;34170;54.364;18.582;2023-12-20T02:00:54;99114.31;;;6.45;100.00
48364;BME280;34170;54.364;18.582;2023-12-20T02:03:23;99113.59;;;6.53;100.00
48364;BME280;34170;54.364;18.582;2023-12-20T02:05:51;99103.63;;;6.45;100.00
48364;BME280;34170;54.364;18.582;2023-12-20T02:08:18;99115.03;;;6.47;100.00
48364;BME280;34170;54.364;18.582;2023-12-20T02:10:46;99105.81;;;6.32;100.00
48364;BME280;34170;54.364;18.582;2023-12-20T02:13:14;99102.31;;;6.32;100.00
48364;BME280;34170;54.364;18.582;2023-12-20T02:15:42;99103.25;;;6.40;100.00
48364;BME280;34170;54.364;18.582;2023-12-20T02:18:11;99108.78;;;6.57;100.00
48364;BME280;34170;54.364;18.582;2023-12-20T02:20:42;99101.91;;;6.17;100.00
48364;BME280;34170;54.364;18.582;2023-12-20T02:23:10;99102.06;;;6.15;100.00
48364;BME280;34170;54.364;18.582;2023-12-20T02:25:38;99099.56;;;6.14;100.00
48364;BME280;34170;54.364;18.582;2023-12-20T02:28:05;99119.50;;;6.19;100.00
48364;BME280;34170;54.364;18.582;2023-12-20T02:30:34;99117.72;;;6.38;100.00
48364;BME280;34170;54.364;18.582;2023-12-20T02:33:03;99100.47;;;6.32;100.00
48364;BME280;34170;54.364;18.582;2023-12-20T02:35:35;99118.47;;;6.20;100.00
48364;BME280;34170;54.364;18.582;2023-12-20T02:38:02;99114.97;;;6.20;100.00
48364;BME280;34170;54.364;18.582;2023-12-20T02:40:30;99123.81;;;6.20;100.00
48364;BME280;34170;54.364;18.582;2023-12-20T02:42:58;99116.41;;;6.14;100.00
48364;BME280;34170;54.364;18.582;2023-12-20T02:45:26;99115.03;;;6.10;100.00
48364;BME280;34170;54.364;18.582;2023-12-20T02:47:54;99098.00;;;6.11;100.00
48364;BME280;34170;54.364;18.582;2023-12-20T02:50:22;99105.13;;;6.30;100.00
48364;BME280;34170;54.364;18.582;2023-12-20T02:52:49;99098.69;;;6.51;100.00
48364;BME280;34170;54.364;18.582;2023-12-20T02:55:17;99100.13;;;6.73;100.00
48364;BME280;34170;54.364;18.582;2023-12-20T02:57:44;99091.63;;;6.59;100.00
48364;BME280;34170;54.364;18.582;2023-12-20T03:00:13;99078.88;;;6.53;100.00
48364;BME280;34170;54.364;18.582;2023-12-20T03:02:41;99076.38;;;6.42;100.00
48364;BME280;34170;54.364;18.582;2023-12-20T03:05:08;99081.78;;;6.32;100.00
48364;BME280;34170;54.364;18.582;2023-12-20T03:07:37;99066.00;;;6.39;100.00
48364;BME280;34170;54.364;18.582;2023-12-20T03:10:06;99062.78;;;6.35;100.00
48364;BME280;34170;54.364;18.582;2023-12-20T03:12:46;99060.00;;;6.27;100.00
48364;BME280;34170;54.364;18.582;2023-12-20T03:15:14;99069.00;;;6.26;100.00
48364;BME280;34170;54.364;18.582;2023-12-20T03:17:41;99076.41;;;5.95;100.00
48364;BME280;34170;54.364;18.582;2023-12-20T03:20:10;99082.34;;;6.26;100.00
48364;BME280;34170;54.364;18.582;2023-12-20T03:22:37;99078.28;;;6.22;100.00
48364;BME280;34170;54.364;18.582;2023-12-20T03:25:05;99074.50;;;6.24;100.00
48364;BME280;34170;54.364;18.582;2023-12-20T03:27:33;99076.78;;;6.19;100.00
48364;BME280;34170;54.364;18.582;2023-12-20T03:30:00;99069.94;;;6.07;100.00
48364;BME280;34170;54.364;18.582;2023-12-20T03:32:28;99069.66;;;6.10;100.00
48364;BME280;34170;54.364;18.582;2023-12-20T03:34:56;99074.13;;;6.09;100.00
48364;BME280;34170;54.364;18.582;2023-12-20T03:37:23;99070.19;;;6.41;100.00
48364;BME280;34170;54.364;18.582;2023-12-20T03:39:51;99079.25;;;6.58;100.00
48364;BME280;34170;54.364;18.582;2023-12-20T03:42:18;99085.16;;;6.62;100.00
48364;BME280;34170;54.364;18.582;2023-12-20T03:44:46;99076.38;;;6.70;100.00
48364;BME280;34170;54.364;18.582;2023-12-20T03:47:13;99073.03;;;6.67;100.00
48364;BME280;34170;54.364;18.582;2023-12-20T03:49:41;99075.59;;;6.59;100.00
48364;BME280;34170;54.364;18.582;2023-12-20T03:52:08;99081.03;;;6.67;100.00
48364;BME280;34170;54.364;18.582;2023-12-20T03:54:36;99087.44;;;6.57;100.00
48364;BME280;34170;54.364;18.582;2023-12-20T03:57:04;99087.97;;;6.60;100.00
48364;BME280;34170;54.364;18.582;2023-12-20T03:59:36;99076.28;;;6.34;100.00
48364;BME280;34170;54.364;18.582;2023-12-20T04:02:03;99087.94;;;6.33;100.00
48364;BME280;34170;54.364;18.582;2023-12-20T04:04:31;99081.34;;;6.37;100.00
48364;BME280;34170;54.364;18.582;2023-12-20T04:06:59;99080.44;;;6.46;100.00
48364;BME280;34170;54.364;18.582;2023-12-20T04:09:27;99076.16;;;6.35;100.00
48364;BME280;34170;54.364;18.582;2023-12-20T04:11:54;99070.59;;;6.46;100.00
48364;BME280;34170;54.364;18.582;2023-12-20T04:14:22;99081.66;;;6.24;100.00
48364;BME280;34170;54.364;18.582;2023-12-20T04:16:49;99080.53;;;6.26;100.00
48364;BME280;34170;54.364;18.582;2023-12-20T04:19:17;99084.72;;;6.29;100.00
48364;BME280;34170;54.364;18.582;2023-12-20T04:21:45;99076.63;;;6.21;100.00
48364;BME280;34170;54.364;18.582;2023-12-20T04:24:12;99070.41;;;6.30;100.00
48364;BME280;34170;54.364;18.582;2023-12-20T04:26:40;99092.84;;;6.37;100.00
48364;BME280;34170;54.364;18.582;2023-12-20T04:29:07;99089.19;;;6.38;100.00
48364;BME280;34170;54.364;18.582;2023-12-20T04:31:35;99084.38;;;6.42;100.00
48364;BME280;34170;54.364;18.582;2023-12-20T04:34:02;99093.47;;;6.21;100.00
48364;BME280;34170;54.364;18.582;2023-12-20T04:36:30;99081.47;;;5.88;100.00
48364;BME280;34170;54.364;18.582;2023-12-20T04:38:57;99099.19;;;5.79;100.00
48364;BME280;34170;54.364;18.582;2023-12-20T04:41:26;99085.19;;;5.67;100.00
48364;BME280;34170;54.364;18.582;2023-12-20T04:43:55;99092.88;;;5.70;100.00
48364;BME280;34170;54.364;18.582;2023-12-20T04:46:22;99085.88;;;5.60;100.00
48364;BME280;34170;54.364;18.582;2023-12-20T04:48:50;99076.75;;;5.52;100.00
48364;BME280;34170;54.364;18.582;2023-12-20T04:51:17;99083.22;;;5.60;100.00
48364;BME280;34170;54.364;18.582;2023-12-20T04:53:45;99079.03;;;5.47;100.00
48364;BME280;34170;54.364;18.582;2023-12-20T04:56:12;99089.97;;;5.44;100.00
48364;BME280;34170;54.364;18.582;2023-12-20T04:58:41;99079.88;;;5.48;100.00
48364;BME280;34170;54.364;18.582;2023-12-20T05:01:09;99085.19;;;5.58;100.00
48364;BME280;34170;54.364;18.582;2023-12-20T05:03:37;99096.16;;;5.45;100.00
48364;BME280;34170;54.364;18.582;2023-12-20T05:06:05;99089.97;;;5.44;100.00
48364;BME280;34170;54.364;18.582;2023-12-20T05:08:32;99090.56;;;5.28;100.00
48364;BME280;34170;54.364;18.582;2023-12-20T05:11:00;99078.06;;;5.39;100.00
48364;BME280;34170;54.364;18.582;2023-12-20T05:13:27;99080.03;;;5.37;100.00
48364;BME280;34170;54.364;18.582;2023-12-20T05:16:08;99074.41;;;5.49;100.00
48364;BME280;34170;54.364;18.582;2023-12-20T05:18:36;99084.75;;;5.52;100.00
48364;BME280;34170;54.364;18.582;2023-12-20T05:21:04;99075.78;;;5.53;100.00
48364;BME280;34170;54.364;18.582;2023-12-20T05:23:31;99084.63;;;5.54;100.00
48364;BME280;34170;54.364;18.582;2023-12-20T05:25:59;99082.94;;;5.63;100.00
48364;BME280;34170;54.364;18.582;2023-12-20T05:28:27;99091.41;;;5.39;100.00
48364;BME280;34170;54.364;18.582;2023-12-20T05:30:54;99096.88;;;5.37;100.00
48364;BME280;34170;54.364;18.582;2023-12-20T05:33:22;99095.47;;;5.33;100.00
48364;BME280;34170;54.364;18.582;2023-12-20T05:35:50;99089.69;;;5.38;100.00
48364;BME280;34170;54.364;18.582;2023-12-20T05:38:17;99072.28;;;5.43;100.00
48364;BME280;34170;54.364;18.582;2023-12-20T05:40:45;99064.72;;;5.48;100.00
48364;BME280;34170;54.364;18.582;2023-12-20T05:43:13;99063.44;;;5.52;100.00
48364;BME280;34170;54.364;18.582;2023-12-20T05:45:40;99066.44;;;5.30;100.00
48364;BME280;34170;54.364;18.582;2023-12-20T05:48:08;99069.19;;;5.38;100.00
48364;BME280;34170;54.364;18.582;2023-12-20T05:50:35;99081.00;;;5.35;100.00
48364;BME280;34170;54.364;18.582;2023-12-20T05:53:04;99079.34;;;5.25;100.00
48364;BME280;34170;54.364;18.582;2023-12-20T05:55:32;99073.44;;;5.21;100.00
48364;BME280;34170;54.364;18.582;2023-12-20T05:57:59;99081.16;;;5.14;100.00
48364;BME280;34170;54.364;18.582;2023-12-20T06:00:28;99072.03;;;5.07;100.00
48364;BME280;34170;54.364;18.582;2023-12-20T06:02:56;99071.75;;;5.10;100.00
48364;BME280;34170;54.364;18.582;2023-12-20T06:05:23;99070.94;;;5.10;100.00
48364;BME280;34170;54.364;18.582;2023-12-20T06:07:51;99066.28;;;5.02;100.00
48364;BME280;34170;54.364;18.582;2023-12-20T06:10:18;99066.16;;;4.94;100.00
48364;BME280;34170;54.364;18.582;2023-12-20T06:12:46;99056.63;;;5.01;100.00
48364;BME280;34170;54.364;18.582;2023-12-20T06:15:17;99054.19;;;4.78;100.00
48364;BME280;34170;54.364;18.582;2023-12-20T06:17:45;99049.00;;;4.67;100.00
48364;BME280;34170;54.364;18.582;2023-12-20T06:20:15;99064.72;;;4.90;100.00
48364;BME280;34170;54.364;18.582;2023-12-20T06:22:43;99055.19;;;4.97;100.00
48364;BME280;34170;54.364;18.582;2023-12-20T06:25:10;99054.22;;;4.98;100.00
48364;BME280;34170;54.364;18.582;2023-12-20T06:27:38;99045.38;;;4.88;100.00
48364;BME280;34170;54.364;18.582;2023-12-20T06:30:06;99044.13;;;5.02;100.00
48364;BME280;34170;54.364;18.582;2023-12-20T06:32:34;99036.97;;;5.02;100.00
48364;BME280;34170;54.364;18.582;2023-12-20T06:35:02;99029.13;;;4.91;100.00
48364;BME280;34170;54.364;18.582;2023-12-20T06:37:32;99020.16;;;4.92;100.00
48364;BME280;34170;54.364;18.582;2023-12-20T06:39:59;99015.63;;;4.83;100.00
48364;BME280;34170;54.364;18.582;2023-12-20T06:42:27;99026.72;;;5.07;100.00
48364;BME280;34170;54.364;18.582;2023-12-20T06:44:57;99023.38;;;5.05;100.00
48364;BME280;34170;54.364;18.582;2023-12-20T06:47:25;99026.03;;;5.05;100.00
48364;BME280;34170;54.364;18.582;2023-12-20T06:49:53;99028.69;;;5.05;100.00
48364;BME280;34170;54.364;18.582;2023-12-20T06:52:21;99022.53;;;5.05;100.00
48364;BME280;34170;54.364;18.582;2023-12-20T06:54:49;99023.50;;;4.94;100.00
48364;BME280;34170;54.364;18.582;2023-12-20T06:57:17;99012.72;;;4.86;100.00
48364;BME280;34170;54.364;18.582;2023-12-20T06:59:45;99023.09;;;4.89;100.00
48364;BME280;34170;54.364;18.582;2023-12-20T07:02:12;99022.09;;;5.00;100.00
48364;BME280;34170;54.364;18.582;2023-12-20T07:04:41;99014.53;;;5.14;100.00
48364;BME280;34170;54.364;18.582;2023-12-20T07:07:09;99022.66;;;5.23;100.00
48364;BME280;34170;54.364;18.582;2023-12-20T07:09:36;99032.63;;;5.01;100.00
48364;BME280;34170;54.364;18.582;2023-12-20T07:12:06;99033.31;;;4.84;100.00
48364;BME280;34170;54.364;18.582;2023-12-20T07:14:33;99030.09;;;4.80;100.00
48364;BME280;34170;54.364;18.582;2023-12-20T07:17:01;99033.47;;;4.92;100.00
48364;BME280;34170;54.364;18.582;2023-12-20T07:19:28;99026.75;;;4.97;100.00
48364;BME280;34170;54.364;18.582;2023-12-20T07:21:56;99027.28;;;4.91;100.00
48364;BME280;34170;54.364;18.582;2023-12-20T07:24:23;99031.34;;;4.86;100.00
48364;BME280;34170;54.364;18.582;2023-12-20T07:26:51;99033.06;;;4.87;100.00
48364;BME280;34170;54.364;18.582;2023-12-20T07:29:19;99026.28;;;4.83;100.00
48364;BME280;34170;54.364;18.582;2023-12-20T07:31:46;99002.63;;;4.89;100.00
48364;BME280;34170;54.364;18.582;2023-12-20T07:34:14;99021.00;;;4.92;100.00
48364;BME280;34170;54.364;18.582;2023-12-20T07:36:42;98999.81;;;4.91;100.00
48364;BME280;34170;54.364;18.582;2023-12-20T07:39:09;99017.34;;;5.03;100.00
48364;BME280;34170;54.364;18.582;2023-12-20T07:41:37;99022.50;;;4.95;100.00
48364;BME280;34170;54.364;18.582;2023-12-20T07:44:06;99006.81;;;4.72;100.00
48364;BME280;34170;54.364;18.582;2023-12-20T07:46:35;99007.41;;;4.95;100.00
48364;BME280;34170;54.364;18.582;2023-12-20T07:49:05;99006.84;;;4.92;100.00
48364;BME280;34170;54.364;18.582;2023-12-20T07:51:33;99002.75;;;5.07;100.00
48364;BME280;34170;54.364;18.582;2023-12-20T07:54:00;98996.59;;;5.07;100.00
48364;BME280;34170;54.364;18.582;2023-12-20T07:56:28;98997.72;;;4.85;100.00
48364;BME280;34170;54.364;18.582;2023-12-20T07:58:55;98989.84;;;4.93;100.00
48364;BME280;34170;54.364;18.582;2023-12-20T08:01:26;98998.25;;;4.98;100.00
48364;BME280;34170;54.364;18.582;2023-12-20T08:03:54;98983.13;;;5.08;100.00
48364;BME280;34170;54.364;18.582;2023-12-20T08:06:21;98977.03;;;5.35;100.00
48364;BME280;34170;54.364;18.582;2023-12-20T08:08:49;98957.41;;;5.27;100.00
48364;BME280;34170;54.364;18.582;2023-12-20T08:11:28;98972.03;;;5.03;100.00
48364;BME280;34170;54.364;18.582;2023-12-20T08:13:57;98969.94;;;4.97;100.00
48364;BME280;34170;54.364;18.582;2023-12-20T08:16:24;98975.13;;;4.99;100.00
48364;BME280;34170;54.364;18.582;2023-12-20T08:18:52;98979.59;;;5.18;100.00
48364;BME280;34170;54.364;18.582;2023-12-20T08:21:20;98968.91;;;5.37;100.00
48364;BME280;34170;54.364;18.582;2023-12-20T08:23:49;98967.91;;;5.38;100.00
48364;BME280;34170;54.364;18.582;2023-12-20T08:26:19;98963.91;;;5.62;100.00
48364;BME280;34170;54.364;18.582;2023-12-20T08:28:51;98964.25;;;5.39;100.00
48364;BME280;34170;54.364;18.582;2023-12-20T08:31:19;98969.31;;;6.17;100.00
48364;BME280;34170;54.364;18.582;2023-12-20T08:33:48;98973.94;;;6.79;97.55
48364;BME280;34170;54.364;18.582;2023-12-20T08:36:16;98965.75;;;7.42;93.66
48364;BME280;34170;54.364;18.582;2023-12-20T08:38:45;98962.00;;;7.09;94.66
48364;BME280;34170;54.364;18.582;2023-12-20T08:41:13;98958.81;;;7.58;93.33
48364;BME280;34170;54.364;18.582;2023-12-20T08:43:41;98961.81;;;8.32;88.90
48364;BME280;34170;54.364;18.582;2023-12-20T08:46:08;98953.16;;;8.54;84.32
48364;BME280;34170;54.364;18.582;2023-12-20T08:48:39;98955.28;;;9.74;78.46
48364;BME280;34170;54.364;18.582;2023-12-20T08:51:07;98956.53;;;10.03;73.67
48364;BME280;34170;54.364;18.582;2023-12-20T08:53:35;98953.00;;;9.38;76.85
48364;BME280;34170;54.364;18.582;2023-12-20T08:56:04;98956.59;;;9.86;73.71
48364;BME280;34170;54.364;18.582;2023-12-20T08:58:31;98956.16;;;9.66;73.34
48364;BME280;34170;54.364;18.582;2023-12-20T09:00:59;98945.91;;;9.70;75.20
48364;BME280;34170;54.364;18.582;2023-12-20T09:03:26;98939.44;;;9.40;76.62
48364;BME280;34170;54.364;18.582;2023-12-20T09:05:54;98931.75;;;9.20;77.66
48364;BME280;34170;54.364;18.582;2023-12-20T09:08:22;98932.88;;;9.42;77.34
48364;BME280;34170;54.364;18.582;2023-12-20T09:10:49;98941.66;;;9.11;77.33
48364;BME280;34170;54.364;18.582;2023-12-20T09:13:17;98934.94;;;8.83;79.66
48364;BME280;34170;54.364;18.582;2023-12-20T09:15:45;98936.72;;;8.41;82.45
48364;BME280;34170;54.364;18.582;2023-12-20T09:18:12;98932.38;;;7.89;85.26
48364;BME280;34170;54.364;18.582;2023-12-20T09:20:40;98925.28;;;7.45;88.05
48364;BME280;34170;54.364;18.582;2023-12-20T09:23:10;98914.19;;;7.32;90.51
48364;BME280;34170;54.364;18.582;2023-12-20T09:25:38;98911.31;;;7.25;90.65
48364;BME280;34170;54.364;18.582;2023-12-20T09:28:05;98914.47;;;7.21;91.85
48364;BME280;34170;54.364;18.582;2023-12-20T09:30:33;98906.69;;;7.36;90.53
48364;BME280;34170;54.364;18.582;2023-12-20T09:33:02;98898.97;;;7.67;89.30
48364;BME280;34170;54.364;18.582;2023-12-20T09:35:30;98888.47;;;8.25;84.80
48364;BME280;34170;54.364;18.582;2023-12-20T09:37:58;98891.38;;;8.48;84.30
48364;BME280;34170;54.364;18.582;2023-12-20T09:40:26;98889.72;;;8.55;84.11
48364;BME280;34170;54.364;18.582;2023-12-20T09:43:03;98875.25;;;8.31;84.69
48364;BME280;34170;54.364;18.582;2023-12-20T09:45:31;98879.94;;;8.37;84.62
48364;BME280;34170;54.364;18.582;2023-12-20T09:48:00;98878.94;;;7.71;87.42
48364;BME280;34170;54.364;18.582;2023-12-20T09:50:28;98863.66;;;7.55;89.42
48364;BME280;34170;54.364;18.582;2023-12-20T09:53:01;98865.16;;;7.50;90.32
48364;BME280;34170;54.364;18.582;2023-12-20T09:55:30;98855.41;;;7.40;91.09
48364;BME280;34170;54.364;18.582;2023-12-20T09:57:59;98849.84;;;7.34;92.22
48364;BME280;34170;54.364;18.582;2023-12-20T10:00:27;98847.38;;;7.40;92.61
48364;BME280;34170;54.364;18.582;2023-12-20T10:03:00;98847.19;;;7.76;89.56
48364;BME280;34170;54.364;18.582;2023-12-20T10:05:33;98844.31;;;7.70;90.45
48364;BME280;34170;54.364;18.582;2023-12-20T10:08:01;98824.25;;;7.74;89.50
48364;BME280;34170;54.364;18.582;2023-12-20T10:10:31;98834.47;;;7.78;89.20
48364;BME280;34170;54.364;18.582;2023-12-20T10:13:12;98811.03;;;7.64;89.65
48364;BME280;34170;54.364;18.582;2023-12-20T10:15:41;98821.22;;;7.69;89.84
48364;BME280;34170;54.364;18.582;2023-12-20T10:18:11;98814.38;;;7.66;89.02
48364;BME280;34170;54.364;18.582;2023-12-20T10:20:41;98813.31;;;7.51;91.08
48364;BME280;34170;54.364;18.582;2023-12-20T10:23:09;98806.66;;;7.20;92.44
48364;BME280;34170;54.364;18.582;2023-12-20T10:25:37;98807.00;;;7.17;93.23
48364;BME280;34170;54.364;18.582;2023-12-20T10:28:15;98801.97;;;6.88;94.81
48364;BME280;34170;54.364;18.582;2023-12-20T10:30:47;98788.94;;;6.85;94.65
48364;BME280;34170;54.364;18.582;2023-12-20T10:33:24;98785.78;;;6.90;95.05
48364;BME280;34170;54.364;18.582;2023-12-20T10:35:55;98791.41;;;6.78;96.32
48364;BME280;34170;54.364;18.582;2023-12-20T10:38:23;98778.19;;;6.77;96.48
48364;BME280;34170;54.364;18.582;2023-12-20T10:40:56;98792.41;;;7.12;94.95
48364;BME280;34170;54.364;18.582;2023-12-20T10:43:27;98784.22;;;7.13;95.24
48364;BME280;34170;54.364;18.582;2023-12-20T10:45:56;98770.13;;;6.95;94.93
48364;BME280;34170;54.364;18.582;2023-12-20T10:48:25;98771.38;;;7.09;95.70
48364;BME280;34170;54.364;18.582;2023-12-20T10:50:57;98757.63;;;7.03;95.61
48364;BME280;34170;54.364;18.582;2023-12-20T10:53:25;98758.69;;;6.84;96.50
48364;BME280;34170;54.364;18.582;2023-12-20T10:55:55;98757.59;;;6.95;97.39
48364;BME280;34170;54.364;18.582;2023-12-20T10:58:25;98748.50;;;6.80;97.79
48364;BME280;34170;54.364;18.582;2023-12-20T11:01:00;98745.63;;;6.73;98.12
48364;BME280;34170;54.364;18.582;2023-12-20T11:03:32;98734.63;;;6.76;98.20
48364;BME280;34170;54.364;18.582;2023-12-20T11:06:09;98738.63;;;7.15;97.26
48364;BME280;34170;54.364;18.582;2023-12-20T11:11:29;98724.53;;;7.04;97.49
48364;BME280;34170;54.364;18.582;2023-12-20T11:14:03;98717.63;;;7.28;97.06
48364;BME280;34170;54.364;18.582;2023-12-20T11:16:32;98708.13;;;7.34;95.43
48364;BME280;34170;54.364;18.582;2023-12-20T11:19:14;98689.25;;;7.60;94.81
48364;BME280;34170;54.364;18.582;2023-12-20T11:21:42;98700.94;;;6.92;97.73
48364;BME280;34170;54.364;18.582;2023-12-20T11:24:10;98687.25;;;7.37;96.62
48364;BME280;34170;54.364;18.582;2023-12-20T11:26:38;98694.53;;;7.19;96.56
48364;BME280;34170;54.364;18.582;2023-12-20T11:29:29;98684.44;;;7.04;98.71
48364;BME280;34170;54.364;18.582;2023-12-20T11:32:00;98679.41;;;6.93;99.61
48364;BME280;34170;54.364;18.582;2023-12-20T11:34:29;98687.53;;;7.18;98.76
48364;BME280;34170;54.364;18.582;2023-12-20T11:37:00;98666.44;;;7.15;99.03
48364;BME280;34170;54.364;18.582;2023-12-20T11:39:28;98677.69;;;7.27;98.86
48364;BME280;34170;54.364;18.582;2023-12-20T11:41:56;98667.88;;;7.52;97.40
48364;BME280;34170;54.364;18.582;2023-12-20T11:44:30;98654.78;;;7.32;98.96
48364;BME280;34170;54.364;18.582;2023-12-20T11:46:58;98653.28;;;7.30;99.68
48364;BME280;34170;54.364;18.582;2023-12-20T11:49:25;98648.78;;;7.38;100.00
48364;BME280;34170;54.364;18.582;2023-12-20T11:51:53;98634.69;;;7.12;100.00
48364;BME280;34170;54.364;18.582;2023-12-20T11:54:21;98635.75;;;7.35;100.00
48364;BME280;34170;54.364;18.582;2023-12-20T11:56:49;98632.38;;;7.25;100.00
48364;BME280;34170;54.364;18.582;2023-12-20T11:59:16;98626.53;;;7.21;100.00
48364;BME280;34170;54.364;18.582;2023-12-20T12:01:50;98613.63;;;7.00;100.00
48364;BME280;34170;54.364;18.582;2023-12-20T12:04:19;98619.00;;;7.17;100.00
48364;BME280;34170;54.364;18.582;2023-12-20T12:06:47;98609.47;;;7.22;100.00
48364;BME280;34170;54.364;18.582;2023-12-20T12:09:15;98597.59;;;7.17;100.00
48364;BME280;34170;54.364;18.582;2023-12-20T12:11:43;98598.47;;;7.25;100.00
48364;BME280;34170;54.364;18.582;2023-12-20T12:14:11;98594.78;;;7.35;100.00
48364;BME280;34170;54.364;18.582;2023-12-20T12:16:38;98584.63;;;7.55;99.15
48364;BME280;34170;54.364;18.582;2023-12-20T12:19:06;98594.31;;;7.48;99.67
48364;BME280;34170;54.364;18.582;2023-12-20T12:21:34;98580.44;;;7.52;98.74
48364;BME280;34170;54.364;18.582;2023-12-20T12:24:08;98579.25;;;7.22;100.00
48364;BME280;34170;54.364;18.582;2023-12-20T12:26:37;98578.13;;;6.65;100.00
48364;BME280;34170;54.364;18.582;2023-12-20T12:29:07;98576.53;;;7.05;100.00
48364;BME280;34170;54.364;18.582;2023-12-20T12:31:35;98575.84;;;6.95;100.00
48364;BME280;34170;54.364;18.582;2023-12-20T12:34:03;98562.34;;;7.13;100.00
48364;BME280;34170;54.364;18.582;2023-12-20T12:36:31;98565.84;;;6.97;100.00
48364;BME280;34170;54.364;18.582;2023-12-20T12:39:02;98572.34;;;6.95;100.00
48364;BME280;34170;54.364;18.582;2023-12-20T12:41:31;98558.00;;;7.04;100.00
48364;BME280;34170;54.364;18.582;2023-12-20T12:43:58;98557.69;;;7.23;100.00
48364;BME280;34170;54.364;18.582;2023-12-20T12:46:38;98575.22;;;7.26;100.00
48364;BME280;34170;54.364;18.582;2023-12-20T12:49:05;98560.84;;;7.11;100.00
48364;BME280;34170;54.364;18.582;2023-12-20T12:51:33;98564.34;;;7.11;100.00
48364;BME280;34170;54.364;18.582;2023-12-20T12:54:00;98558.53;;;7.32;99.94
48364;BME280;34170;54.364;18.582;2023-12-20T12:56:28;98555.19;;;7.38;99.86
48364;BME280;34170;54.364;18.582;2023-12-20T12:58:56;98559.88;;;7.28;100.00
48364;BME280;34170;54.364;18.582;2023-12-20T13:01:24;98558.53;;;7.16;100.00
48364;BME280;34170;54.364;18.582;2023-12-20T13:03:52;98562.78;;;6.76;100.00